Time;durP1;ratioP1;P1;durP2;ratioP2;P2;SDS_P1;SDS_P2;PMS_P1;PMS_P2;Temp;Humidity;BMP_temperature;BMP_pressure;BME280_temperature;BME280_humidity;BME280_pressure;Samples;Min_cycle;Max_cycle;Signal;HPM_P1;HPM_P2
2023/05/11 00:01:52;;;;;;;10.18;7.13;;;;;;;;;;5112652;28;20439;-62
2023/05/11 00:04:18;;;;;;;9.77;6.40;;;20.40;92.00;;;;;;5102773;28;20048;-62
2023/05/11 00:06:44;;;;;;;9.70;6.07;;;20.10;91.90;;;;;;5094085;28;20031;-62
2023/05/11 00:09:10;;;;;;;9.38;6.65;;;20.40;91.50;;;;;;5093125;28;20048;-61
2023/05/11 00:11:36;;;;;;;9.50;6.28;;;;;;;;;;5090287;28;20044;-63
2023/05/11 00:14:02;;;;;;;9.63;6.57;;;20.50;92.00;;;;;;5094682;28;20130;-62
2023/05/11 00:16:28;;;;;;;9.07;6.22;;;;;;;;;;5091360;28;20032;-62
2023/05/11 00:18:54;;;;;;;8.68;5.93;;;20.40;91.90;;;;;;5094780;28;20079;-60
2023/05/11 00:21:21;;;;;;;9.75;6.47;;;20.40;91.90;;;;;;5092112;28;20068;-62
2023/05/11 00:23:48;;;;;;;8.68;6.03;;;20.30;91.00;;;;;;5094917;28;20087;-61
2023/05/11 00:29:54;;;;;;;10.05;6.70;;;20.50;91.90;;;;;;5082188;28;20361;-61
2023/05/11 00:32:20;;;;;;;9.25;6.13;;;20.30;91.90;;;;;;5096581;28;20120;-68
2023/05/11 00:34:46;;;;;;;9.20;6.43;;;;;;;;;;5102491;28;20143;-68
2023/05/11 00:37:12;;;;;;;8.68;5.93;;;;;;;;;;5089365;28;20567;-69
2023/05/11 00:39:39;;;;;;;9.40;6.80;;;;;;;;;;5091646;28;20123;-68
2023/05/11 00:42:05;;;;;;;8.85;6.28;;;20.20;91.80;;;;;;5087460;28;20489;-68
2023/05/11 00:44:31;;;;;;;11.30;6.57;;;20.20;91.70;;;;;;5092322;28;20044;-68
2023/05/11 00:46:57;;;;;;;9.43;6.90;;;20.30;91.80;;;;;;5081152;28;20047;-68
2023/05/11 00:49:23;;;;;;;11.43;7.72;;;;;;;;;;5093045;28;20070;-68
2023/05/11 00:51:49;;;;;;;9.38;6.55;;;;;;;;;;5083361;28;20064;-68
2023/05/11 00:54:15;;;;;;;10.38;6.88;;;20.50;91.80;;;;;;5091238;28;20106;-68
2023/05/11 00:56:41;;;;;;;10.07;6.82;;;20.30;90.10;;;;;;5095210;28;20048;-67
2023/05/11 00:59:07;;;;;;;10.60;6.65;;;20.00;89.90;;;;;;5090363;28;20043;-68
2023/05/11 01:01:34;;;;;;;9.45;7.13;;;;;;;;;;5087849;28;20420;-69
2023/05/11 01:04:01;;;;;;;11.20;6.97;;;20.30;91.70;;;;;;5078198;28;20450;-69
2023/05/11 01:06:46;;;;;;;9.65;6.63;;;20.30;91.70;;;;;;5083340;28;20432;-68
2023/05/11 01:09:45;;;;;;;10.48;6.68;;;20.00;91.70;;;;;;5093532;28;20453;-68
2023/05/11 01:12:17;;;;;;;10.55;6.65;;;20.20;91.80;;;;;;5090539;28;20056;-63
2023/05/11 01:14:53;;;;;;;10.15;6.82;;;20.20;91.00;;;;;;5075736;28;20052;-63
2023/05/11 01:17:26;;;;;;;10.32;6.72;;;20.20;91.60;;;;;;5092872;28;20043;-63
2023/05/11 01:20:11;;;;;;;10.75;6.75;;;20.30;91.70;;;;;;5091563;28;20563;-62
2023/05/11 01:22:47;;;;;;;9.85;6.78;;;20.20;90.30;;;;;;5075531;28;20078;-61
2023/05/11 01:25:50;;;;;;;9.65;6.72;;;20.20;91.70;;;;;;5091163;28;20118;-68
2023/05/11 01:28:20;;;;;;;;;;;20.10;90.10;;;;;;5074707;28;20063;-68
2023/05/11 01:30:50;;;;;;;10.30;6.18;;;20.40;91.70;;;;;;5090371;28;19923;-68
2023/05/11 01:33:16;;;;;;;9.30;6.22;;;20.20;91.70;;;;;;5088400;28;20045;-68
2023/05/11 01:35:47;;;;;;;9.45;6.45;;;20.40;91.70;;;;;;5091373;28;20052;-68
2023/05/11 01:38:13;;;;;;;8.75;6.28;;;20.40;91.70;;;;;;5092072;28;20052;-68
2023/05/11 01:40:40;;;;;;;11.57;6.85;;;20.40;90.30;;;;;;5090993;28;20090;-68
2023/05/11 01:43:12;;;;;;;10.25;6.18;;;20.00;89.00;;;;;;5099742;28;20493;-67
2023/05/11 01:45:40;;;;;;;10.02;6.40;;;20.30;91.70;;;;;;5103411;28;20040;-68
2023/05/11 01:48:08;;;;;;;10.23;6.95;;;20.30;91.60;;;;;;5091851;28;20051;-61
2023/05/11 01:50:34;;;;;;;9.40;6.70;;;20.20;91.60;;;;;;5092930;28;20045;-61
2023/05/11 01:53:01;;;;;;;9.77;6.85;;;;;;;;;;5076612;28;20044;-62
2023/05/11 01:55:26;;;;;;;10.48;6.60;;;20.20;91.60;;;;;;5091890;28;20054;-61
2023/05/11 01:57:53;;;;;;;10.02;6.50;;;20.30;91.60;;;;;;5075563;28;20044;-60
2023/05/11 02:00:19;;;;;;;9.32;6.22;;;20.10;91.60;;;;;;5058274;28;20048;-63
2023/05/11 02:02:46;;;;;;;9.45;6.72;;;20.30;91.60;;;;;;5091509;28;20397;-60
2023/05/11 02:05:19;;;;;;;9.35;6.38;;;20.10;91.50;;;;;;5072028;28;20048;-63
2023/05/11 02:07:47;;;;;;;8.82;6.38;;;;;;;;;;5092307;28;20044;-62
2023/05/11 02:10:13;;;;;;;9.40;6.15;;;19.90;91.50;;;;;;5093766;28;20426;-61
2023/05/11 02:12:39;;;;;;;8.32;6.00;;;;;;;;;;5068332;28;20094;-62
2023/05/11 02:15:05;;;;;;;8.85;6.32;;;20.30;91.60;;;;;;5102476;28;20119;-60
2023/05/11 02:17:31;;;;;;;9.75;6.47;;;20.10;91.10;;;;;;5058107;28;20056;-61
2023/05/11 02:19:57;;;;;;;9.73;6.57;;;20.20;91.60;;;;;;5075230;28;20036;-61
2023/05/11 02:22:23;;;;;;;8.77;6.32;;;20.40;91.60;;;;;;5084978;28;20051;-61
2023/05/11 02:24:49;;;;;;;10.20;6.82;;;20.30;91.60;;;;;;5074039;28;20482;-61
2023/05/11 02:27:14;;;;;;;9.38;6.35;;;20.20;90.20;;;;;;5074711;28;20050;-61
2023/05/11 02:29:40;;;;;;;9.60;6.80;;;20.50;91.60;;;;;;5091105;28;20044;-61
2023/05/11 02:32:08;;;;;;;9.48;6.35;;;20.00;91.50;;;;;;5090602;28;20044;-61
2023/05/11 02:34:41;;;;;;;10.15;7.22;;;20.30;91.10;;;;;;5059279;28;20114;-68
2023/05/11 02:37:10;;;;;;;9.68;6.28;;;20.20;90.10;;;;;;5073208;28;20052;-68
2023/05/11 02:39:36;;;;;;;11.40;7.43;;;;;;;;;;5088170;28;20036;-67
2023/05/11 02:42:08;;;;;;;11.40;7.03;;;20.30;90.60;;;;;;5089236;28;20048;-68
2023/05/11 02:44:34;;;;;;;9.93;7.03;;;;;;;;;;5081030;28;20036;-68
2023/05/11 02:47:02;;;;;;;12.75;7.32;;;20.20;90.10;;;;;;5070618;28;20469;-68
2023/05/11 02:49:28;;;;;;;10.70;6.95;;;20.00;90.30;;;;;;5072165;28;20057;-67
2023/05/11 02:51:54;;;;;;;11.35;6.82;;;20.20;91.50;;;;;;5089717;28;20047;-67
2023/05/11 02:54:20;;;;;;;10.30;6.80;;;20.10;91.50;;;;;;5089671;28;20548;-67
2023/05/11 02:56:45;;;;;;;13.85;7.95;;;20.30;90.50;;;;;;5072944;28;20409;-62
2023/05/11 02:59:11;;;;;;;11.63;7.22;;;19.90;91.40;;;;;;5078025;28;20446;-61
2023/05/11 03:01:38;;;;;;;10.10;6.90;;;20.20;90.10;;;;;;5089885;28;20045;-63
2023/05/11 03:04:04;;;;;;;11.40;7.30;;;;;;;;;;5088513;28;20123;-64
2023/05/11 03:06:30;;;;;;;10.63;7.07;;;19.90;91.50;;;;;;5082351;28;20040;-62
2023/05/11 03:08:56;;;;;;;12.35;6.82;;;20.00;91.50;;;;;;5071738;28;20040;-61
2023/05/11 03:11:22;;;;;;;10.50;7.00;;;20.10;91.50;;;;;;5079229;28;20371;-61
2023/05/11 03:13:49;;;;;;;10.00;6.88;;;;;;;;;;5091048;28;20070;-63
2023/05/11 03:16:14;;;;;;;9.82;6.50;;;20.10;91.50;;;;;;5094448;28;20040;-62
2023/05/11 03:18:40;;;;;;;9.63;6.22;;;19.90;91.40;;;;;;5089529;28;20477;-61
2023/05/11 03:21:06;;;;;;;9.82;6.70;;;;;;;;;;5080155;28;20036;-61
2023/05/11 03:23:33;;;;;;;10.38;6.35;;;20.20;91.50;;;;;;5090689;28;20113;-61
2023/05/11 03:25:59;;;;;;;9.38;6.25;;;20.00;90.60;;;;;;5098689;28;20097;-62
2023/05/11 03:28:25;;;;;;;8.82;6.00;;;20.00;91.50;;;;;;5096596;28;20044;-61
2023/05/11 03:30:51;;;;;;;8.55;5.80;;;20.00;91.40;;;;;;5090003;28;20209;-61
2023/05/11 03:33:17;;;;;;;8.38;5.57;;;20.10;91.50;;;;;;5077563;28;20039;-62
2023/05/11 03:35:42;;;;;;;9.30;6.20;;;20.10;91.50;;;;;;5090793;28;20533;-62
2023/05/11 03:38:08;;;;;;;8.80;5.68;;;20.20;91.50;;;;;;5098688;28;20093;-62
2023/05/11 03:40:34;;;;;;;8.57;5.65;;;;;;;;;;5076584;28;20040;-63
2023/05/11 03:43:01;;;;;;;8.55;5.72;;;20.10;91.50;;;;;;5089035;28;20123;-62
2023/05/11 03:45:27;;;;;;;9.25;5.63;;;20.10;91.40;;;;;;5073541;28;20281;-61
2023/05/11 03:47:53;;;;;;;9.00;5.95;;;20.00;91.40;;;;;;5092431;28;20090;-61
2023/05/11 03:50:19;;;;;;;8.88;6.05;;;19.80;91.40;;;;;;5077416;28;20032;-61
2023/05/11 03:52:45;;;;;;;8.82;5.78;;;;;;;;;;5092914;28;20119;-65
2023/05/11 03:55:10;;;;;;;9.07;5.82;;;20.10;90.60;;;;;;5101021;28;20140;-61
2023/05/11 03:57:36;;;;;;;9.50;5.75;;;20.10;91.50;;;;;;5098227;28;20149;-61
2023/05/11 04:00:02;;;;;;;8.00;5.50;;;19.90;91.30;;;;;;5061626;28;20099;-62
2023/05/11 04:02:28;;;;;;;9.45;6.30;;;20.20;91.50;;;;;;5093354;28;20048;-62
2023/05/11 04:04:54;;;;;;;8.48;5.68;;;;;;;;;;5092931;28;20119;-68
2023/05/11 04:07:20;;;;;;;9.02;5.80;;;;;;;;;;5085540;28;20095;-62
2023/05/11 04:09:46;;;;;;;8.30;5.55;;;20.20;91.50;;;;;;5092632;28;20036;-61
2023/05/11 04:12:12;;;;;;;8.25;5.07;;;20.10;91.50;;;;;;5095485;28;20504;-62
2023/05/11 04:14:37;;;;;;;9.65;5.00;;;20.00;91.50;;;;;;5093645;28;20040;-61
2023/05/11 04:17:03;;;;;;;8.18;4.90;;;19.90;91.40;;;;;;5098173;28;20080;-61
2023/05/11 04:19:29;;;;;;;8.45;5.25;;;;;;;;;;5096067;28;20480;-61
2023/05/11 04:21:56;;;;;;;8.07;5.32;;;;;;;;;;5085569;28;20056;-62
2023/05/11 04:24:21;;;;;;;9.50;5.25;;;20.20;91.50;;;;;;5085742;28;20036;-63
2023/05/11 04:26:48;;;;;;;7.68;4.97;;;;;;;;;;5095432;28;20397;-61
2023/05/11 04:29:14;;;;;;;9.05;5.55;;;;;;;;;;5095084;28;20051;-64
2023/05/11 04:31:39;;;;;;;7.35;4.72;;;20.20;91.50;;;;;;5089552;28;20055;-61
2023/05/11 04:34:07;;;;;;;7.82;5.05;;;19.90;91.40;;;;;;5090621;28;20043;-61
2023/05/11 04:36:33;;;;;;;7.75;5.00;;;;;;;;;;5091308;28;20486;-63
2023/05/11 04:38:59;;;;;;;7.93;4.97;;;20.10;91.50;;;;;;5092945;28;20055;-60
2023/05/11 04:41:25;;;;;;;7.40;5.35;;;;;;;;;;5094711;28;20382;-60
2023/05/11 04:43:51;;;;;;;7.65;5.30;;;20.10;91.50;;;;;;5093429;28;20051;-61
2023/05/11 04:46:17;;;;;;;7.35;4.72;;;;;;;;;;5090136;28;20056;-65
2023/05/11 04:48:43;;;;;;;8.30;5.55;;;;;;;;;;5101945;28;20036;-62
2023/05/11 04:51:09;;;;;;;7.95;5.40;;;20.10;91.50;;;;;;5093969;28;20040;-61
2023/05/11 04:53:34;;;;;;;7.70;4.85;;;20.10;91.40;;;;;;5093118;28;20040;-61
2023/05/11 04:56:00;;;;;;;7.40;4.80;;;20.20;91.50;;;;;;5095708;28;20178;-60
2023/05/11 04:58:26;;;;;;;7.75;5.53;;;20.00;91.50;;;;;;5091868;28;20410;-62
2023/05/11 05:00:52;;;;;;;9.02;5.07;;;;;;;;;;5091236;28;20054;-63
2023/05/11 05:03:18;;;;;;;7.28;4.85;;;20.00;91.40;;;;;;5094365;28;20139;-67
2023/05/11 05:05:44;;;;;;;7.25;4.95;;;20.10;90.30;;;;;;5092822;28;20388;-67
2023/05/11 05:08:09;;;;;;;6.63;4.40;;;19.90;91.40;;;;;;5090937;28;20474;-66
2023/05/11 05:10:35;;;;;;;8.10;4.85;;;20.20;91.40;;;;;;5077627;28;20052;-66
2023/05/11 05:13:01;;;;;;;7.40;4.97;;;20.20;91.50;;;;;;5093502;28;20052;-67
2023/05/11 05:15:26;;;;;;;7.53;5.30;;;20.20;91.40;;;;;;5092259;28;20043;-61
2023/05/11 05:17:53;;;;;;;6.43;4.30;;;;;;;;;;5095765;28;20432;-67
2023/05/11 05:20:18;;;;;;;6.63;4.53;;;20.50;91.40;;;;;;5082201;28;20386;-66
2023/05/11 05:22:45;;;;;;;7.18;4.70;;;;;;;;;;5093693;28;20043;-66
2023/05/11 05:25:11;;;;;;;6.65;4.22;;;;;;;;;;5087293;28;20041;-66
2023/05/11 05:27:37;;;;;;;7.45;4.72;;;;;;;;;;5087370;28;20055;-66
2023/05/11 05:30:03;;;;;;;7.20;4.57;;;20.20;90.60;;;;;;5092147;28;20491;-62
2023/05/11 05:32:29;;;;;;;6.97;4.75;;;20.20;91.40;;;;;;5093250;28;20036;-61
2023/05/11 05:34:55;;;;;;;7.35;4.63;;;;;;;;;;5074247;28;20055;-61
2023/05/11 05:37:21;;;;;;;6.13;4.05;;;;;;;;;;5076271;28;20042;-62
2023/05/11 05:39:47;;;;;;;6.93;4.57;;;20.30;91.50;;;;;;5087488;28;20127;-60
2023/05/11 05:42:13;;;;;;;6.60;4.60;;;20.00;91.40;;;;;;5093794;28;20152;-61
2023/05/11 05:44:39;;;;;;;6.85;4.65;;;;;;;;;;5092223;28;20052;-63
2023/05/11 05:47:05;;;;;;;6.97;4.20;;;20.10;91.40;;;;;;5093643;28;20044;-61
2023/05/11 05:49:31;;;;;;;5.72;3.70;;;20.30;91.50;;;;;;5094209;28;20047;-63
2023/05/11 05:51:56;;;;;;;6.40;3.85;;;20.00;91.30;;;;;;5094227;28;20078;-61
2023/05/11 05:54:22;;;;;;;6.95;4.22;;;20.40;91.40;;;;;;5092604;28;20040;-61
2023/05/11 05:56:49;;;;;;;6.72;4.50;;;20.10;90.00;;;;;;5087157;28;20055;-60
2023/05/11 05:59:15;;;;;;;6.18;3.55;;;20.20;90.90;;;;;;5093519;28;20063;-61
2023/05/11 06:01:44;;;;;;;9.10;4.20;;;20.20;90.20;;;;;;5095271;28;20048;-61
2023/05/11 06:04:11;;;;;;;6.30;3.72;;;20.10;91.40;;;;;;5113336;28;20040;-60
2023/05/11 06:06:37;;;;;;;5.93;3.80;;;19.90;90.90;;;;;;5100174;28;20044;-61
2023/05/11 06:09:03;;;;;;;5.97;3.88;;;20.20;91.50;;;;;;5084376;28;20709;-60
2023/05/11 06:11:29;;;;;;;6.85;3.97;;;20.20;91.50;;;;;;5091660;28;20044;-61
2023/05/11 06:13:55;;;;;;;5.97;3.67;;;20.30;90.40;;;;;;5075234;28;20051;-62
2023/05/11 06:16:21;;;;;;;5.75;3.67;;;20.10;91.30;;;;;;5073805;28;20445;-61
2023/05/11 06:18:47;;;;;;;5.93;3.72;;;20.20;91.40;;;;;;5093650;28;20048;-61
2023/05/11 06:21:13;;;;;;;7.03;3.65;;;;;;;;;;5092982;28;20043;-61
2023/05/11 06:23:38;;;;;;;6.15;4.05;;;20.30;91.00;;;;;;5093179;28;20127;-62
2023/05/11 06:26:04;;;;;;;5.47;3.67;;;;;;;;;;5093330;28;20119;-62
2023/05/11 06:28:31;;;;;;;6.20;4.10;;;;;;;;;;5093443;28;20083;-62
2023/05/11 06:30:59;;;;;;;5.80;3.90;;;20.30;91.40;;;;;;5093049;28;20044;-61
2023/05/11 06:33:25;;;;;;;5.72;3.78;;;20.10;91.30;;;;;;5089415;28;20138;-67
2023/05/11 06:35:51;;;;;;;5.80;3.83;;;;;;;;;;5091695;28;20059;-65
2023/05/11 06:38:17;;;;;;;6.63;4.53;;;20.20;91.30;;;;;;5092272;28;20123;-67
2023/05/11 06:40:43;;;;;;;5.80;3.75;;;20.30;91.30;;;;;;5092910;28;20519;-67
2023/05/11 06:43:09;;;;;;;6.18;3.80;;;20.30;91.30;;;;;;5091794;28;20153;-61
2023/05/11 06:45:35;;;;;;;6.28;3.90;;;20.30;91.30;;;;;;5090518;28;20083;-68
2023/05/11 06:48:02;;;;;;;6.28;3.92;;;;;;;;;;5091602;28;20082;-67
2023/05/11 06:50:29;;;;;;;6.07;3.75;;;20.00;91.20;;;;;;5092047;28;20044;-67
2023/05/11 06:52:55;;;;;;;5.53;3.75;;;20.20;91.30;;;;;;5091296;28;20131;-67
2023/05/11 06:55:21;;;;;;;5.53;3.03;;;;;;;;;;5089432;28;20541;-66
2023/05/11 06:57:47;;;;;;;5.15;3.38;;;20.10;91.30;;;;;;5097738;28;20060;-66
2023/05/11 07:00:13;;;;;;;5.82;3.45;;;20.00;89.00;;;;;;5106983;27;20162;-66
2023/05/11 07:02:39;;;;;;;5.00;3.20;;;20.40;91.20;;;;;;5081564;28;20098;-66
2023/05/11 07:05:05;;;;;;;5.70;3.40;;;20.40;91.30;;;;;;5091611;28;20043;-66
2023/05/11 07:07:30;;;;;;;4.47;2.80;;;20.50;91.30;;;;;;5087636;28;20127;-66
2023/05/11 07:09:56;;;;;;;4.85;3.20;;;20.20;91.20;;;;;;5075449;28;20043;-66
2023/05/11 07:12:22;;;;;;;5.05;3.00;;;20.40;91.30;;;;;;5091003;28;20055;-62
2023/05/11 07:14:48;;;;;;;4.95;3.05;;;;;;;;;;5091253;28;20088;-63
2023/05/11 07:20:42;;;;;;;4.82;3.10;;;;;;;;;;5090959;28;20501;-62
2023/05/11 07:23:08;;;;;;;5.15;3.30;;;;;;;;;;5081490;28;20135;-62
2023/05/11 07:25:34;;;;;;;4.78;2.70;;;;;;;;;;5091867;28;20044;-67
2023/05/11 07:28:01;;;;;;;5.05;2.88;;;;;;;;;;5092550;28;20047;-66
2023/05/11 07:30:26;;;;;;;3.78;2.22;;;20.30;89.80;;;;;;5096125;28;20169;-63
2023/05/11 07:32:52;;;;;;;4.53;2.35;;;20.30;91.20;;;;;;5079124;28;20052;-63
2023/05/11 07:35:18;;;;;;;4.90;2.55;;;;;;;;;;5073219;28;20047;-63
2023/05/11 07:37:44;;;;;;;4.80;2.88;;;20.30;91.20;;;;;;5079612;28;20048;-62
2023/05/11 07:40:10;;;;;;;4.10;2.40;;;20.50;88.50;;;;;;5088645;28;20394;-67
2023/05/11 07:42:36;;;;;;;4.50;2.40;;;20.10;91.10;;;;;;5089120;28;20044;-61
2023/05/11 07:45:02;;;;;;;3.85;2.25;;;20.30;91.10;;;;;;5085957;28;20126;-61
2023/05/11 07:47:28;;;;;;;5.10;2.75;;;20.40;91.00;;;;;;5089121;28;20048;-60
2023/05/11 07:49:54;;;;;;;3.95;2.10;;;;;;;;;;5089921;28;20036;-62
2023/05/11 07:52:20;;;;;;;5.30;2.53;;;20.40;91.20;;;;;;5085539;28;20482;-67
2023/05/11 07:54:46;;;;;;;5.22;2.80;;;20.30;91.10;;;;;;5082941;28;20446;-68
2023/05/11 07:57:12;;;;;;;4.82;2.63;;;20.30;91.10;;;;;;5091273;28;20048;-68
2023/05/11 07:59:39;;;;;;;4.32;2.55;;;20.30;91.10;;;;;;5089884;28;20171;-68
2023/05/11 08:02:06;;;;;;;4.68;2.70;;;20.20;91.10;;;;;;5091153;28;20051;-62
2023/05/11 08:04:32;;;;;;;5.00;3.08;;;20.40;91.10;;;;;;5086899;28;20108;-63
2023/05/11 08:06:58;;;;;;;4.78;2.53;;;20.40;91.10;;;;;;5075501;28;20396;-62
2023/05/11 08:09:24;;;;;;;4.63;2.45;;;20.30;91.10;;;;;;5080294;28;20037;-61
2023/05/11 08:11:50;;;;;;;5.03;2.85;;;;;;;;;;5089171;28;20441;-68
2023/05/11 08:14:16;;;;;;;3.75;2.40;;;;;;;;;;5083703;28;20040;-62
2023/05/11 08:16:42;;;;;;;4.40;2.53;;;20.20;91.10;;;;;;5098125;28;20075;-63
2023/05/11 08:19:08;;;;;;;4.63;2.83;;;20.50;90.50;;;;;;5090718;28;20044;-62
2023/05/11 08:21:34;;;;;;;6.75;2.90;;;20.30;90.10;;;;;;5080801;28;20127;-62
2023/05/11 08:24:00;;;;;;;5.45;2.45;;;;;;;;;;5088845;28;20050;-63
2023/05/11 08:26:27;;;;;;;4.95;2.38;;;20.40;91.10;;;;;;5097523;28;20039;-64
2023/05/11 08:28:52;;;;;;;4.35;2.60;;;20.50;91.10;;;;;;5103991;28;20097;-63
2023/05/11 08:31:19;;;;;;;4.18;2.38;;;;;;;;;;5102369;28;20037;-61
2023/05/11 08:33:44;;;;;;;4.43;2.60;;;20.50;91.10;;;;;;5091562;28;20416;-65
2023/05/11 08:36:12;;;;;;;4.32;2.67;;;20.60;89.90;;;;;;5096596;28;20048;-61
2023/05/11 08:38:37;;;;;;;4.07;2.38;;;20.50;91.00;;;;;;5081501;28;20036;-65
2023/05/11 08:41:03;;;;;;;4.20;2.42;;;20.10;88.50;;;;;;5076188;28;20442;-63
2023/05/11 08:43:29;;;;;;;4.60;2.60;;;;;;;;;;5088779;28;20075;-62
2023/05/11 08:45:57;;;;;;;4.75;2.55;;;20.40;91.00;;;;;;5082615;28;20040;-63
2023/05/11 08:48:23;;;;;;;4.15;2.33;;;20.70;90.50;;;;;;5087988;28;20401;-61
2023/05/11 08:50:49;;;;;;;4.60;2.55;;;20.40;91.00;;;;;;5093107;28;20048;-60
2023/05/11 08:53:15;;;;;;;4.97;3.08;;;;;;;;;;5075055;28;20549;-64
2023/05/11 08:55:41;;;;;;;4.93;2.80;;;20.40;88.80;;;;;;5080991;28;20127;-63
2023/05/11 08:58:07;;;;;;;4.82;2.50;;;20.30;90.90;;;;;;5065292;28;20092;-61
2023/05/11 09:00:33;;;;;;;4.45;2.45;;;20.40;91.00;;;;;;5086514;28;20073;-62
2023/05/11 09:02:59;;;;;;;5.65;2.83;;;20.40;91.00;;;;;;5080758;28;20127;-66
2023/05/11 09:05:25;;;;;;;4.53;2.78;;;20.60;91.00;;;;;;5091624;28;20127;-62
2023/05/11 09:07:52;;;;;;;5.22;2.28;;;20.40;90.90;;;;;;5085395;28;20083;-67
2023/05/11 09:10:18;;;;;;;4.10;2.60;;;;;;;;;;5087397;28;20044;-67
2023/05/11 09:12:44;;;;;;;4.25;2.35;;;20.50;90.70;;;;;;5087432;28;20064;-67
2023/05/11 09:15:10;;;;;;;5.03;2.40;;;20.60;90.90;;;;;;5079100;28;20083;-64
2023/05/11 09:17:36;;;;;;;4.20;2.35;;;20.60;90.40;;;;;;5082818;28;20524;-66
2023/05/11 09:20:06;;;;;;;5.13;2.33;;;20.80;88.60;;;;;;5087388;28;20097;-67
2023/05/11 09:22:45;;;;;;;4.32;2.22;;;20.60;90.90;;;;;;5085276;28;20482;-67
2023/05/11 09:25:12;;;;;;;5.43;2.85;;;20.80;90.90;;;;;;5087942;28;20447;-67
2023/05/11 09:27:44;;;;;;;5.28;2.88;;;20.60;87.30;;;;;;5081098;28;20044;-66
2023/05/11 09:30:23;;;;;;;4.43;2.37;;;20.80;90.90;;;;;;5075729;28;20151;-66
2023/05/11 09:32:52;;;;;;;4.60;2.42;;;21.10;90.10;;;;;;5076655;28;20037;-66
2023/05/11 09:35:24;;;;;;;4.57;2.50;;;20.80;90.80;;;;;;5091003;28;20044;-66
2023/05/11 09:38:00;;;;;;;3.80;2.17;;;21.00;90.80;;;;;;5077077;28;20070;-66
2023/05/11 09:40:26;;;;;;;4.78;2.40;;;21.00;90.80;;;;;;5072396;28;20049;-66
2023/05/11 09:42:52;;;;;;;4.28;2.25;;;21.20;90.70;;;;;;5087681;28;20048;-66
2023/05/11 09:45:36;;;;;;;4.05;2.33;;;21.10;88.70;;;;;;5056271;28;20051;-67
2023/05/11 09:48:03;;;;;;;3.53;2.08;;;21.40;90.60;;;;;;5093726;28;20051;-66
2023/05/11 09:50:36;;;;;;;5.43;2.03;;;21.30;86.50;;;;;;5073223;28;20080;-64
2023/05/11 09:53:02;;;;;;;4.13;2.03;;;21.40;90.40;;;;;;5082758;28;20497;-66
2023/05/11 09:55:28;;;;;;;4.03;2.20;;;;;;;;;;5089886;28;20048;-64
2023/05/11 09:57:55;;;;;;;4.15;2.05;;;21.50;90.40;;;;;;5090659;28;20087;-62
2023/05/11 10:00:21;;;;;;;4.72;2.28;;;21.60;90.30;;;;;;5086928;28;20436;-66
2023/05/11 10:02:59;;;;;;;3.95;2.10;;;21.70;90.30;;;;;;5078578;28;20045;-65
2023/05/11 10:05:25;;;;;;;4.13;2.40;;;;;;;;;;5091957;28;20043;-66
2023/05/11 10:07:58;;;;;;;3.65;1.95;;;21.80;90.20;;;;;;5072701;28;20048;-62
2023/05/11 10:10:28;;;;;;;4.55;2.22;;;21.60;90.10;;;;;;5073559;28;20041;-62
2023/05/11 10:12:54;;;;;;;4.45;2.20;;;21.90;89.30;;;;;;5073417;28;20040;-66
2023/05/11 10:15:24;;;;;;;4.35;2.10;;;;;;;;;;5075572;28;20366;-66
2023/05/11 10:17:50;;;;;;;3.60;1.98;;;21.80;90.00;;;;;;5084695;28;20489;-66
2023/05/11 10:20:16;;;;;;;3.95;2.10;;;22.10;90.20;;;;;;5093088;28;20166;-66
2023/05/11 10:22:45;;;;;;;4.10;1.85;;;22.10;90.10;;;;;;5088800;28;20071;-62
2023/05/11 10:25:11;;;;;;;4.00;1.95;;;22.10;90.10;;;;;;5072018;28;20063;-61
2023/05/11 10:27:37;;;;;;;4.38;1.95;;;22.30;90.10;;;;;;5082739;28;20044;-64
2023/05/11 10:30:03;;;;;;;3.97;2.10;;;22.00;90.00;;;;;;5074588;28;20509;-62
2023/05/11 10:32:29;;;;;;;3.78;2.08;;;22.00;89.90;;;;;;5073774;28;20122;-65
2023/05/11 10:34:54;;;;;;;3.63;1.90;;;21.80;89.70;;;;;;5070063;28;20698;-62
2023/05/11 10:37:20;;;;;;;4.35;1.90;;;21.80;89.60;;;;;;5053054;28;20049;-62
2023/05/11 10:39:46;;;;;;;4.35;2.10;;;22.10;89.80;;;;;;5040318;28;20137;-62
2023/05/11 10:42:26;;;;;;;5.88;1.90;;;22.10;89.70;;;;;;5080565;28;20052;-63
2023/05/11 10:45:11;;;;;;;4.15;1.83;;;21.90;89.60;;;;;;5092116;28;20052;-62
2023/05/11 10:47:47;;;;;;;3.63;1.90;;;22.00;86.40;;;;;;5100740;28;20044;-65
2023/05/11 10:50:42;;;;;;;3.10;1.92;;;22.20;85.60;;;;;;5078201;28;20036;-65
2023/05/11 10:53:14;;;;;;;2.92;1.80;;;22.00;85.90;;;;;;5089238;28;20460;-64
2023/05/11 10:55:53;;;;;;;3.63;1.77;;;22.30;89.70;;;;;;5090119;28;20056;-62
2023/05/11 10:59:03;;;;;;;3.58;1.90;;;22.10;89.50;;;;;;5091231;28;20066;-65
2023/05/11 11:01:36;;;;;;;3.67;1.95;;;22.20;88.60;;;;;;5077523;28;20075;-64
2023/05/11 11:04:04;;;;;;;3.42;1.85;;;22.10;86.40;;;;;;5080146;28;20070;-65
2023/05/11 11:06:30;;;;;;;4.53;1.88;;;22.20;89.40;;;;;;5088242;28;20033;-65
2023/05/11 11:09:07;;;;;;;2.63;1.90;;;22.30;89.40;;;;;;5089715;28;20040;-62
2023/05/11 11:11:41;;;;;;;3.45;1.60;;;22.20;84.70;;;;;;5070767;28;20065;-65
2023/05/11 11:14:08;;;;;;;4.13;1.85;;;22.50;89.40;;;;;;5088172;28;20113;-61
2023/05/11 11:16:37;;;;;;;4.10;1.80;;;22.40;89.30;;;;;;5065307;28;20059;-65
2023/05/11 11:19:31;;;;;;;3.75;1.98;;;22.20;88.60;;;;;;5084213;28;20489;-64
2023/05/11 11:22:00;;;;;;;3.35;1.80;;;22.20;89.20;;;;;;5079887;28;20049;-62
2023/05/11 11:24:45;;;;;;;3.15;1.80;;;22.30;89.30;;;;;;5076590;28;20394;-62
2023/05/11 11:27:11;;;;;;;3.60;1.73;;;22.00;89.00;;;;;;5080022;28;20044;-61
2023/05/11 11:29:37;;;;;;;4.20;2.00;;;22.20;89.20;;;;;;5089807;28;21735;-65
2023/05/11 11:32:18;;;;;;;3.20;1.75;;;22.40;84.80;;;;;;5075572;28;20037;-65
2023/05/11 11:34:47;;;;;;;3.25;1.85;;;22.20;89.20;;;;;;5079937;28;20040;-66
2023/05/11 11:37:14;;;;;;;3.42;1.88;;;22.20;89.00;;;;;;5090773;28;20040;-65
2023/05/11 11:39:40;;;;;;;5.35;1.90;;;22.30;89.10;;;;;;5090516;28;20261;-65
2023/05/11 11:42:08;;;;;;;5.43;1.90;;;22.20;88.90;;;;;;5090490;28;20036;-62
2023/05/11 11:44:34;;;;;;;3.75;1.60;;;22.40;85.40;;;;;;5092429;28;20080;-63
2023/05/11 11:47:10;;;;;;;3.85;2.00;;;22.10;88.80;;;;;;5079040;28;20434;-65
2023/05/11 11:49:37;;;;;;;4.68;2.10;;;22.40;87.20;;;;;;5072311;28;20539;-63
2023/05/11 11:52:05;;;;;;;14.63;4.20;;;;;;;;;;5089983;28;20083;-64
2023/05/11 11:54:38;;;;;;;23.75;6.15;;;22.20;84.30;;;;;;5092219;28;20119;-61
2023/05/11 11:57:04;;;;;;;17.17;4.55;;;;;;;;;;5092200;28;20064;-62
2023/05/11 11:59:31;;;;;;;15.15;4.63;;;22.40;88.90;;;;;;5092223;28;20464;-66
2023/05/11 12:01:56;;;;;;;16.95;4.57;;;22.30;88.90;;;;;;5073232;28;20238;-66
2023/05/11 12:04:30;;;;;;;11.05;3.80;;;22.30;88.90;;;;;;5057120;28;20123;-65
2023/05/11 12:06:57;;;;;;;10.20;3.65;;;22.10;88.80;;;;;;5076348;28;20500;-66
2023/05/11 12:09:23;;;;;;;9.05;3.67;;;22.10;88.70;;;;;;5094611;28;20513;-64
2023/05/11 12:11:49;;;;;;;7.80;3.33;;;22.40;88.90;;;;;;5095117;28;20087;-66
2023/05/11 12:14:14;;;;;;;6.63;3.00;;;22.30;88.70;;;;;;5061094;28;20047;-66
2023/05/11 12:16:40;;;;;;;8.57;3.60;;;22.30;85.90;;;;;;5077853;28;20040;-65
2023/05/11 12:19:06;;;;;;;9.02;3.33;;;22.30;88.80;;;;;;5095998;28;20079;-66
2023/05/11 12:21:32;;;;;;;10.20;3.53;;;22.50;88.90;;;;;;5094582;28;20040;-66
2023/05/11 12:23:58;;;;;;;6.72;3.15;;;;;;;;;;5095154;28;20078;-67
2023/05/11 12:26:25;;;;;;;6.60;2.88;;;22.30;88.70;;;;;;5096049;28;20044;-67
2023/05/11 12:28:51;;;;;;;7.63;2.60;;;22.50;86.20;;;;;;5090630;28;20056;-62
2023/05/11 12:31:19;;;;;;;7.45;3.13;;;22.40;85.40;;;;;;5095524;28;20032;-62
2023/05/11 12:33:46;;;;;;;12.68;2.90;;;22.30;88.60;;;;;;5095481;28;20048;-61
2023/05/11 12:36:14;;;;;;;6.85;2.88;;;22.60;88.60;;;;;;5094723;28;20037;-61
2023/05/11 12:38:46;;;;;;;8.23;3.15;;;22.50;88.60;;;;;;5095164;28;20486;-63
2023/05/11 12:41:22;;;;;;;14.45;4.32;;;22.40;88.40;;;;;;5077659;28;20059;-61
2023/05/11 12:43:52;;;;;;;17.58;3.20;;;22.50;88.50;;;;;;5095601;28;20409;-62
2023/05/11 12:46:18;;;;;;;7.10;2.45;;;22.50;88.50;;;;;;5094594;28;20043;-61
2023/05/11 12:48:48;;;;;;;6.65;3.10;;;22.40;83.70;;;;;;5076108;28;20040;-61
2023/05/11 12:51:34;;;;;;;6.28;3.08;;;22.20;88.10;;;;;;5075367;28;20044;-67
2023/05/11 12:54:00;;;;;;;7.75;3.05;;;22.60;88.50;;;;;;5068987;28;20213;-68
2023/05/11 12:56:26;;;;;;;6.65;3.20;;;22.30;88.40;;;;;;5074580;28;20501;-68
2023/05/11 12:58:52;;;;;;;6.20;3.25;;;;;;;;;;5091186;28;20060;-67
2023/05/11 13:01:22;;;;;;;6.72;2.97;;;22.50;88.30;;;;;;5094239;28;20044;-67
2023/05/11 13:03:48;;;;;;;7.25;3.05;;;22.30;88.30;;;;;;5094732;28;20044;-68
2023/05/11 13:06:18;;;;;;;7.03;3.30;;;22.50;88.30;;;;;;5093756;28;20043;-67
2023/05/11 13:08:44;;;;;;;3.83;2.42;;;22.50;86.00;;;;;;5094564;28;20040;-68
2023/05/11 13:11:24;;;;;;;5.85;3.30;;;22.20;88.10;;;;;;5094332;28;20055;-68
2023/05/11 13:13:50;;;;;;;6.72;3.60;;;22.10;84.20;;;;;;5079320;28;20052;-68
2023/05/11 13:16:31;;;;;;;7.88;3.53;;;22.50;88.20;;;;;;5074691;28;20051;-64